Terminal Aerodrome Forecast
Issued by NWS

Home | Current Version | Previous Version | Text Only | Print | Product List | Glossary On
Versions: 1 2 3 4 5 6 7 8 9 10 11 12 13 14 15 16 17 18 19 20 21 22 23 24 25 26 27
000
FTUS43 KDLH 030400 AAA
TAFBRD
TAF AMD
KBRD 030440Z 0305/0324 19014KT P6SM OVC080
     FM030600 18014G20KT P6SM SCT025 OVC060
      TEMPO 0306/0310 3SM -SN SCT008 OVC025
     FM031000 20008KT 1/2SM SN OVC012
     FM031700 30014KT 5SM -SN BLSN OVC025
     FM032000 32018G28KT 6SM BLSN OVC030=

USA.gov is the U.S. government's official web portal to all federal, state and local government web resources and services.